createdAt,value
2022-12-08T00:00:17.620Z,57.71
2022-12-08T00:01:23.454Z,57.74
2022-12-08T00:02:26.995Z,57.88
2022-12-08T00:03:30.604Z,57.81
2022-12-08T00:04:35.638Z,57.92
2022-12-08T00:05:57.133Z,57.93
2022-12-08T00:07:18.496Z,58.09
2022-12-08T00:08:40.203Z,58.06
2022-12-08T00:09:43.328Z,58.13
2022-12-08T00:10:49.746Z,58.05
2022-12-08T00:12:01.175Z,58.03
2022-12-08T00:13:04.471Z,58.01
2022-12-08T00:14:07.740Z,58.13
2022-12-08T00:15:10.915Z,58.14
2022-12-08T00:16:14.789Z,58.22
2022-12-08T00:17:18.029Z,58.34
2022-12-08T00:18:21.222Z,58.20
2022-12-08T00:19:24.619Z,58.18
2022-12-08T00:20:27.802Z,58.16
2022-12-08T00:21:30.859Z,58.24
2022-12-08T00:22:33.969Z,58.17
2022-12-08T00:23:37.035Z,58.18
2022-12-08T00:24:41.651Z,58.22
2022-12-08T00:25:44.783Z,58.27
2022-12-08T00:26:48.259Z,58.41
2022-12-08T00:27:51.947Z,58.42
2022-12-08T00:28:55.125Z,58.51
2022-12-08T00:29:58.365Z,58.62
2022-12-08T00:31:10.157Z,58.72
2022-12-08T00:32:13.366Z,58.77
2022-12-08T00:33:16.560Z,58.78
2022-12-08T00:34:20.231Z,58.95
2022-12-08T00:35:23.296Z,58.93
2022-12-08T00:36:26.918Z,58.98
2022-12-08T00:37:30.210Z,59.08
2022-12-08T00:38:33.690Z,59.30
2022-12-08T00:39:36.880Z,59.52
2022-12-08T00:40:45.744Z,59.69
2022-12-08T00:42:07.298Z,59.82
2022-12-08T00:43:10.689Z,60.00
2022-12-08T00:44:15.878Z,60.22
2022-12-08T00:45:19.527Z,60.39
2022-12-08T00:46:22.858Z,60.54
2022-12-08T00:47:26.050Z,60.75
2022-12-08T00:48:29.240Z,60.86
2022-12-08T00:49:32.399Z,60.96
2022-12-08T00:50:35.619Z,61.04
2022-12-08T00:51:38.955Z,61.10
2022-12-08T00:52:42.202Z,61.26
2022-12-08T00:53:45.340Z,61.26
2022-12-08T00:54:48.656Z,61.30
2022-12-08T00:55:51.966Z,61.39
2022-12-08T00:56:55.988Z,61.41
2022-12-08T00:57:59.187Z,61.54
2022-12-08T00:59:04.863Z,61.60
2022-12-08T01:00:08.884Z,61.79
2022-12-08T01:01:13.704Z,61.79
2022-12-08T01:02:16.933Z,61.86
2022-12-08T01:03:20.198Z,61.86
2022-12-08T01:04:23.351Z,62.12
2022-12-08T01:05:26.638Z,62.11
2022-12-08T01:06:29.830Z,62.17
2022-12-08T01:07:33.132Z,62.34
2022-12-08T01:08:37.549Z,62.40
2022-12-08T01:09:40.793Z,62.64
2022-12-08T01:10:44.194Z,62.63
2022-12-08T01:11:47.303Z,62.71
2022-12-08T01:12:50.628Z,62.80
2022-12-08T01:13:54.206Z,62.81
2022-12-08T01:15:02.091Z,62.81
2022-12-08T01:16:02.568Z,63.11
2022-12-08T01:17:05.976Z,63.08
2022-12-08T01:18:09.359Z,63.15
2022-12-08T01:19:15.095Z,63.14
2022-12-08T01:20:18.328Z,63.25
2022-12-08T01:21:21.504Z,63.24
2022-12-08T01:22:24.879Z,63.31
2022-12-08T01:23:28.179Z,63.45
2022-12-08T01:24:31.871Z,63.56
2022-12-08T01:25:35.146Z,63.62
2022-12-08T01:26:38.320Z,63.49
2022-12-08T01:27:41.437Z,63.50
2022-12-08T01:28:46.854Z,63.56
2022-12-08T01:29:49.954Z,63.61
2022-12-08T01:30:53.172Z,63.73
2022-12-08T01:31:56.458Z,63.69
2022-12-08T01:32:59.611Z,63.79
2022-12-08T01:34:02.678Z,63.75
2022-12-08T01:35:06.115Z,63.75
2022-12-08T01:36:12.074Z,63.78
2022-12-08T01:37:15.194Z,63.78
2022-12-08T01:38:18.592Z,63.75
2022-12-08T01:39:21.801Z,63.74
2022-12-08T01:40:24.975Z,63.80
2022-12-08T01:41:31.252Z,63.81
2022-12-08T01:42:34.461Z,63.66
2022-12-08T01:43:59.436Z,63.55
2022-12-08T01:45:05.645Z,63.54
2022-12-08T01:46:08.950Z,63.37
2022-12-08T01:47:12.245Z,63.19
2022-12-08T01:48:19.003Z,63.17
2022-12-08T01:49:28.535Z,63.11
2022-12-08T01:50:32.332Z,63.09
2022-12-08T01:51:57.014Z,63.15
2022-12-08T01:53:03.678Z,62.98
2022-12-08T01:54:07.663Z,63.09
2022-12-08T01:55:14.278Z,62.93
2022-12-08T01:56:39.271Z,62.89
2022-12-08T01:57:51.389Z,62.85
2022-12-08T01:58:56.176Z,62.85
2022-12-08T02:00:10.597Z,62.69
2022-12-08T02:01:14.172Z,62.77
2022-12-08T02:02:17.405Z,62.85
2022-12-08T02:03:24.129Z,62.79
2022-12-08T02:04:27.247Z,62.79
2022-12-08T02:05:33.869Z,62.68
2022-12-08T02:06:40.125Z,62.74
2022-12-08T02:07:44.066Z,62.66
2022-12-08T02:08:49.243Z,62.65
2022-12-08T02:09:53.786Z,62.59
2022-12-08T02:10:57.270Z,62.54
2022-12-08T02:12:00.762Z,62.47
2022-12-08T02:13:06.358Z,62.48
2022-12-08T02:14:12.961Z,62.47
2022-12-08T02:15:16.633Z,62.45
2022-12-08T02:16:42.857Z,62.53
2022-12-08T02:18:10.555Z,62.33
2022-12-08T02:21:10.692Z,62.44
2022-12-08T02:22:26.384Z,62.42
2022-12-08T02:23:54.007Z,62.49
2022-12-08T02:25:00.713Z,62.44
2022-12-08T02:26:07.360Z,62.49
2022-12-08T02:27:48.561Z,62.48
2022-12-08T02:29:07.151Z,62.61
2022-12-08T02:30:16.897Z,62.64
2022-12-08T02:31:23.682Z,62.61
2022-12-08T02:32:52.908Z,62.53
2022-12-08T02:34:02.518Z,62.55
2022-12-08T02:35:27.995Z,62.47
2022-12-08T02:36:40.829Z,62.51
2022-12-08T02:37:50.332Z,62.42
2022-12-08T02:39:18.017Z,62.53
2022-12-08T02:40:30.647Z,62.43
2022-12-08T02:41:40.409Z,62.39
2022-12-08T02:42:53.268Z,62.46
2022-12-08T02:44:06.197Z,62.40
2022-12-08T02:45:15.685Z,62.51
2022-12-08T02:46:31.088Z,62.41
2022-12-08T02:47:35.024Z,62.44
2022-12-08T02:48:38.931Z,62.43
2022-12-08T02:49:42.410Z,62.49
2022-12-08T02:50:45.702Z,62.41
2022-12-08T02:51:48.819Z,62.49
2022-12-08T02:52:52.273Z,62.44
2022-12-08T02:53:55.644Z,62.41
2022-12-08T02:55:05.428Z,62.57
2022-12-08T02:56:31.132Z,62.53
2022-12-08T02:57:55.891Z,62.59
2022-12-08T02:59:17.446Z,62.46
2022-12-08T03:00:23.019Z,62.45
2022-12-08T03:01:41.826Z,62.43
2022-12-08T03:03:03.794Z,62.46
2022-12-08T03:04:28.562Z,62.54
2022-12-08T03:05:59.360Z,62.55
2022-12-08T03:07:08.615Z,62.51
2022-12-08T03:08:24.272Z,62.69
2022-12-08T03:09:31.139Z,62.58
2022-12-08T03:10:43.707Z,62.52
2022-12-08T03:11:59.545Z,62.49
2022-12-08T03:13:06.403Z,62.51
2022-12-08T03:14:13.158Z,62.63
2022-12-08T03:15:20.036Z,62.60
2022-12-08T03:16:26.673Z,62.46
2022-12-08T03:17:31.775Z,62.47
2022-12-08T03:18:38.703Z,62.45
2022-12-08T03:19:43.690Z,62.29
2022-12-08T03:20:48.773Z,62.33
2022-12-08T03:21:56.572Z,62.27
2022-12-08T03:23:01.722Z,62.30
2022-12-08T03:24:07.726Z,62.34
2022-12-08T03:25:14.319Z,62.34
2022-12-08T03:26:21.229Z,62.15
2022-12-08T03:27:30.399Z,62.14
2022-12-08T03:28:33.730Z,62.12
2022-12-08T03:29:36.919Z,62.19
2022-12-08T03:30:42.633Z,62.37
2022-12-08T03:31:49.370Z,62.37
2022-12-08T03:33:01.951Z,62.38
2022-12-08T03:34:05.461Z,62.43
2022-12-08T03:35:15.187Z,62.34
2022-12-08T03:36:19.390Z,62.29
2022-12-08T03:37:22.593Z,62.30
2022-12-08T03:38:25.799Z,62.36
2022-12-08T03:39:28.978Z,62.42
2022-12-08T03:40:32.195Z,62.42
2022-12-08T03:41:35.303Z,62.33
2022-12-08T03:42:38.433Z,62.46
2022-12-08T03:43:41.558Z,62.33
2022-12-08T03:44:44.772Z,62.44
2022-12-08T03:45:48.066Z,62.32
2022-12-08T03:46:51.319Z,62.37
2022-12-08T03:47:54.547Z,62.52
2022-12-08T03:48:57.774Z,62.41
2022-12-08T03:50:01.134Z,62.55
2022-12-08T03:51:04.447Z,62.55
2022-12-08T03:52:07.668Z,62.55
2022-12-08T03:53:10.871Z,62.49
2022-12-08T03:54:14.011Z,62.61
2022-12-08T03:55:17.891Z,62.46
2022-12-08T03:56:30.393Z,62.63
2022-12-08T03:57:33.630Z,62.47
2022-12-08T03:58:37.694Z,62.50
2022-12-08T03:59:41.004Z,62.59
2022-12-08T04:00:44.466Z,62.51
2022-12-08T04:01:47.687Z,62.51
2022-12-08T04:02:50.855Z,62.47
2022-12-08T04:03:54.236Z,62.60
2022-12-08T04:04:57.381Z,62.53
2022-12-08T04:06:00.594Z,62.62
2022-12-08T04:07:03.845Z,62.55
2022-12-08T04:08:06.970Z,62.56
2022-12-08T04:09:10.226Z,62.61
2022-12-08T04:10:13.433Z,62.72
2022-12-08T04:11:17.544Z,62.61
2022-12-08T04:12:20.628Z,62.69
2022-12-08T04:13:23.865Z,62.71
2022-12-08T04:14:26.970Z,62.63
2022-12-08T04:15:30.205Z,62.63
2022-12-08T04:16:33.409Z,62.63
2022-12-08T04:17:36.681Z,62.59
2022-12-08T04:18:39.938Z,62.53
2022-12-08T04:19:43.053Z,62.52
2022-12-08T04:20:46.536Z,62.63
2022-12-08T04:21:49.613Z,62.56
2022-12-08T04:22:52.744Z,62.55
2022-12-08T04:24:00.880Z,62.68
2022-12-08T04:25:01.190Z,62.55
2022-12-08T04:26:04.836Z,62.53
2022-12-08T04:27:07.901Z,62.56
2022-12-08T04:28:11.004Z,62.72
2022-12-08T04:29:14.124Z,62.74
2022-12-08T04:30:17.329Z,62.63
2022-12-08T04:31:20.465Z,62.60
2022-12-08T04:32:23.579Z,62.69
2022-12-08T04:33:26.971Z,62.67
2022-12-08T04:34:30.072Z,62.56
2022-12-08T04:35:33.168Z,62.58
2022-12-08T04:36:36.244Z,62.56
2022-12-08T04:37:39.326Z,62.67
2022-12-08T04:38:42.416Z,62.57
2022-12-08T04:39:45.538Z,62.61
2022-12-08T04:40:48.853Z,62.72
2022-12-08T04:41:52.006Z,62.72
2022-12-08T04:42:55.403Z,62.75
2022-12-08T04:43:58.490Z,62.63
2022-12-08T04:45:01.612Z,62.77
2022-12-08T04:46:08.767Z,62.75
2022-12-08T04:47:12.074Z,62.64
2022-12-08T04:48:15.622Z,62.77
2022-12-08T04:49:18.839Z,62.74
2022-12-08T04:50:22.100Z,62.77
2022-12-08T04:51:26.761Z,62.76
2022-12-08T04:52:30.131Z,62.82
2022-12-08T04:53:33.938Z,62.86
2022-12-08T04:54:37.245Z,62.98
2022-12-08T04:55:43.341Z,62.91
2022-12-08T04:56:46.684Z,62.89
2022-12-08T04:57:50.092Z,63.08
2022-12-08T04:58:53.412Z,63.11
2022-12-08T04:59:56.903Z,63.04
2022-12-08T05:01:00.185Z,63.11
2022-12-08T05:02:03.558Z,63.30
2022-12-08T05:03:07.156Z,63.20
2022-12-08T05:04:10.279Z,63.27
2022-12-08T05:05:13.498Z,63.21
2022-12-08T05:06:17.113Z,63.20
2022-12-08T05:07:20.334Z,63.43
2022-12-08T05:08:23.678Z,63.43
2022-12-08T05:09:27.544Z,63.64
2022-12-08T05:15:16.686Z,63.92
2022-12-08T05:16:20.006Z,64.59
2022-12-08T05:17:23.263Z,64.59
2022-12-08T05:18:26.342Z,64.49
2022-12-08T05:19:29.541Z,64.53
2022-12-08T05:20:33.518Z,64.62
2022-12-08T05:21:36.662Z,64.73
2022-12-08T05:22:39.780Z,64.84
2022-12-08T05:23:42.851Z,64.98
2022-12-08T05:24:47.897Z,65.20
2022-12-08T05:25:51.031Z,65.31
2022-12-08T05:26:54.238Z,65.25
2022-12-08T05:28:17.684Z,65.26
2022-12-08T05:29:02.310Z,65.29
2022-12-08T05:30:06.763Z,65.49
2022-12-08T05:31:12.502Z,65.50
2022-12-08T05:32:16.458Z,65.43
2022-12-08T05:33:19.602Z,65.45
2022-12-08T05:34:22.775Z,65.46
2022-12-08T05:35:26.059Z,65.47
2022-12-08T05:36:29.311Z,65.56
2022-12-08T05:37:32.636Z,65.50
2022-12-08T05:38:36.042Z,65.59
2022-12-08T05:39:39.251Z,65.66
2022-12-08T05:40:42.967Z,65.71
2022-12-08T05:41:46.284Z,65.79
2022-12-08T05:42:49.559Z,65.94
2022-12-08T05:43:52.682Z,65.86
2022-12-08T05:44:55.839Z,66.05
2022-12-08T05:45:59.229Z,65.90
2022-12-08T05:47:02.513Z,65.96
2022-12-08T05:48:06.131Z,65.93
2022-12-08T05:49:09.365Z,66.15
2022-12-08T05:50:12.586Z,66.16
2022-12-08T05:51:21.720Z,66.22
2022-12-08T05:52:25.033Z,66.31
2022-12-08T05:53:28.329Z,66.44
2022-12-08T05:54:31.533Z,66.52
2022-12-08T05:55:34.765Z,66.58
2022-12-08T05:56:38.036Z,66.62
2022-12-08T05:57:41.241Z,66.77
2022-12-08T05:58:45.143Z,66.82
2022-12-08T05:59:48.299Z,67.01
2022-12-08T06:00:51.504Z,66.94
2022-12-08T06:01:54.712Z,67.14
2022-12-08T06:02:58.100Z,67.11
2022-12-08T06:04:02.908Z,67.24
2022-12-08T06:05:06.811Z,67.15
2022-12-08T06:06:10.559Z,67.21
2022-12-08T06:07:16.154Z,67.26
2022-12-08T06:08:18.820Z,67.30
2022-12-08T06:09:22.125Z,67.34
2022-12-08T06:10:25.478Z,67.57
2022-12-08T06:11:30.699Z,67.51
2022-12-08T06:12:34.075Z,67.65
2022-12-08T06:13:37.225Z,67.55
2022-12-08T06:14:40.449Z,67.63
2022-12-08T06:15:43.740Z,67.76
2022-12-08T06:16:47.205Z,67.76
2022-12-08T06:17:50.443Z,67.90
2022-12-08T06:18:54.227Z,67.76
2022-12-08T06:19:57.471Z,67.83
2022-12-08T06:21:08.813Z,67.88
2022-12-08T06:22:12.070Z,68.01
2022-12-08T06:23:15.212Z,68.01
2022-12-08T06:24:18.331Z,68.04
2022-12-08T06:25:22.535Z,68.10
2022-12-08T06:26:25.873Z,68.29
2022-12-08T06:27:28.952Z,68.23
2022-12-08T06:28:32.895Z,68.33
2022-12-08T06:29:35.973Z,68.25
2022-12-08T06:30:39.316Z,68.36
2022-12-08T06:31:42.496Z,68.46
2022-12-08T06:32:45.629Z,68.46
2022-12-08T06:33:49.565Z,68.53
2022-12-08T06:34:52.764Z,68.61
2022-12-08T06:35:58.138Z,68.67
2022-12-08T06:37:01.410Z,68.69
2022-12-08T06:38:04.614Z,68.86
2022-12-08T06:39:09.463Z,68.78
2022-12-08T06:40:13.751Z,68.78
2022-12-08T06:41:17.754Z,68.91
2022-12-08T06:42:39.331Z,68.87
2022-12-08T06:43:43.267Z,68.95
2022-12-08T06:44:46.891Z,69.16
2022-12-08T06:45:50.952Z,69.24
2022-12-08T06:46:54.142Z,69.18
2022-12-08T06:47:57.198Z,69.17
2022-12-08T06:49:00.399Z,69.29
2022-12-08T06:50:05.634Z,69.43
2022-12-08T06:51:15.279Z,69.39
2022-12-08T06:52:18.541Z,69.33
2022-12-08T06:53:21.732Z,69.49
2022-12-08T06:54:24.940Z,69.38
2022-12-08T06:55:57.943Z,69.48
2022-12-08T06:56:33.457Z,69.38
2022-12-08T06:57:36.799Z,69.39
2022-12-08T06:58:39.877Z,69.41
2022-12-08T06:59:43.161Z,69.36
2022-12-08T07:00:46.630Z,69.43
2022-12-08T07:01:49.941Z,69.38
2022-12-08T07:02:53.391Z,69.51
2022-12-08T07:03:56.606Z,69.49
2022-12-08T07:04:59.769Z,69.52
2022-12-08T07:06:04.355Z,69.53
2022-12-08T07:07:07.835Z,69.56
2022-12-08T07:08:11.027Z,69.59
2022-12-08T07:09:15.021Z,69.70
2022-12-08T07:10:18.598Z,69.63
2022-12-08T07:11:22.842Z,69.62
2022-12-08T07:12:26.209Z,69.61
2022-12-08T07:13:29.441Z,69.64
2022-12-08T07:14:32.699Z,69.65
2022-12-08T07:15:36.084Z,69.72
2022-12-08T07:16:39.704Z,69.75
2022-12-08T07:17:42.933Z,69.62
2022-12-08T07:18:46.291Z,69.66
2022-12-08T07:19:49.492Z,69.74
2022-12-08T07:20:52.942Z,69.61
2022-12-08T07:21:56.164Z,69.67
2022-12-08T07:22:59.470Z,69.53
2022-12-08T07:24:02.733Z,69.63
2022-12-08T07:25:06.677Z,69.55
2022-12-08T07:26:11.394Z,69.70
2022-12-08T07:27:14.746Z,69.64
2022-12-08T07:28:17.946Z,69.74
2022-12-08T07:29:26.038Z,69.66
2022-12-08T07:30:26.516Z,69.66
2022-12-08T07:31:29.852Z,69.66
2022-12-08T07:32:33.142Z,69.61
2022-12-08T07:33:36.437Z,69.64
2022-12-08T07:34:39.649Z,69.58
2022-12-08T07:35:47.765Z,69.54
2022-12-08T07:36:48.011Z,69.62
2022-12-08T07:37:51.252Z,69.69
2022-12-08T07:38:54.494Z,69.76
2022-12-08T07:39:57.779Z,69.61
2022-12-08T07:41:01.009Z,69.76
2022-12-08T07:42:04.237Z,69.66
2022-12-08T07:43:08.204Z,69.76
2022-12-08T07:44:11.464Z,69.75
2022-12-08T07:45:14.665Z,69.59
2022-12-08T07:46:20.595Z,69.60
2022-12-08T07:47:23.985Z,69.63
2022-12-08T07:48:27.570Z,69.78
2022-12-08T07:49:30.784Z,69.77
2022-12-08T07:50:34.260Z,69.60
2022-12-08T07:51:37.309Z,69.58
2022-12-08T07:52:40.455Z,69.57
2022-12-08T07:53:49.872Z,69.56
2022-12-08T07:54:50.236Z,69.62
2022-12-08T07:55:53.519Z,69.60
2022-12-08T07:57:00.418Z,69.67
2022-12-08T07:58:03.568Z,69.70
2022-12-08T07:59:06.689Z,69.67
2022-12-08T08:00:11.321Z,69.67
2022-12-08T08:01:23.628Z,69.71
2022-12-08T08:02:27.109Z,69.69
2022-12-08T08:03:31.001Z,69.84
2022-12-08T08:04:34.187Z,69.75
2022-12-08T08:05:37.551Z,69.67
2022-12-08T08:06:40.960Z,69.70
2022-12-08T08:07:45.938Z,69.67
2022-12-08T08:08:49.244Z,69.61
2022-12-08T08:09:52.329Z,69.67
2022-12-08T08:10:55.402Z,69.67
2022-12-08T08:12:28.984Z,69.77
2022-12-08T08:13:03.524Z,69.79
2022-12-08T08:14:06.858Z,69.69
2022-12-08T08:15:10.262Z,69.76
2022-12-08T08:16:14.575Z,69.83
2022-12-08T08:17:17.964Z,69.83
2022-12-08T08:18:21.215Z,69.82
2022-12-08T08:19:24.351Z,69.90
2022-12-08T08:20:27.623Z,69.94
2022-12-08T08:21:45.409Z,69.94
2022-12-08T08:22:36.430Z,69.92
2022-12-08T08:23:39.917Z,70.03
2022-12-08T08:24:45.059Z,70.03
2022-12-08T08:25:48.202Z,69.96
2022-12-08T08:26:52.980Z,69.98
2022-12-08T08:27:56.194Z,70.00
2022-12-08T08:28:59.301Z,70.05
2022-12-08T08:30:03.881Z,70.10
2022-12-08T08:31:07.570Z,70.13
2022-12-08T08:32:11.260Z,70.28
2022-12-08T08:33:14.463Z,70.17
2022-12-08T08:34:17.777Z,70.24
2022-12-08T08:35:21.027Z,70.24
2022-12-08T08:36:24.304Z,70.25
2022-12-08T08:37:27.939Z,70.25
2022-12-08T08:38:31.202Z,70.20
2022-12-08T08:39:34.513Z,70.16
2022-12-08T08:40:37.959Z,70.26
2022-12-08T08:41:41.253Z,70.16
2022-12-08T08:42:44.484Z,70.23
2022-12-08T08:43:47.686Z,70.22
2022-12-08T08:44:50.858Z,70.11
2022-12-08T08:45:56.685Z,70.07
2022-12-08T08:47:00.037Z,70.11
2022-12-08T08:48:03.475Z,69.98
2022-12-08T08:49:06.987Z,70.08
2022-12-08T08:50:10.289Z,69.98
2022-12-08T08:51:14.737Z,70.03
2022-12-08T08:52:17.992Z,70.10
2022-12-08T08:53:21.357Z,70.18
2022-12-08T08:54:24.627Z,70.21
2022-12-08T08:55:28.089Z,70.37
2022-12-08T08:56:31.592Z,70.29
2022-12-08T08:57:34.802Z,70.37
2022-12-08T08:58:38.000Z,70.50
2022-12-08T08:59:41.208Z,70.41
2022-12-08T09:00:44.772Z,70.44
2022-12-08T09:01:48.324Z,70.53
2022-12-08T09:02:51.639Z,70.61
2022-12-08T09:03:55.313Z,70.61
2022-12-08T09:04:59.220Z,70.61
2022-12-08T09:06:02.548Z,70.54
2022-12-08T09:07:05.820Z,70.55
2022-12-08T09:08:09.199Z,70.56
2022-12-08T09:09:12.554Z,70.44
2022-12-08T09:10:16.012Z,70.42
2022-12-08T09:11:19.324Z,70.41
2022-12-08T09:12:22.570Z,70.43
2022-12-08T09:13:25.762Z,70.49
2022-12-08T09:14:29.006Z,70.44
2022-12-08T09:15:32.227Z,70.52
2022-12-08T09:16:41.808Z,70.41
2022-12-08T09:17:40.555Z,70.38
2022-12-08T09:18:43.811Z,70.44
2022-12-08T09:19:47.099Z,70.34
2022-12-08T09:20:50.581Z,70.33
2022-12-08T09:21:54.328Z,70.32
2022-12-08T09:22:59.569Z,70.31
2022-12-08T09:24:02.983Z,70.33
2022-12-08T09:25:06.266Z,70.43
2022-12-08T09:26:10.286Z,70.41
2022-12-08T09:27:13.495Z,70.36
2022-12-08T09:28:16.773Z,70.51
2022-12-08T09:29:19.962Z,70.40
2022-12-08T09:30:23.494Z,70.40
2022-12-08T09:31:26.832Z,70.48
2022-12-08T09:32:30.030Z,70.46
2022-12-08T09:33:33.154Z,70.56
2022-12-08T09:34:36.585Z,70.46
2022-12-08T09:35:39.792Z,70.45
2022-12-08T09:36:43.299Z,70.55
2022-12-08T09:37:46.491Z,70.62
2022-12-08T09:38:50.500Z,70.63
2022-12-08T09:39:53.582Z,70.61
2022-12-08T09:40:57.406Z,70.56
2022-12-08T09:42:06.287Z,70.50
2022-12-08T09:43:29.281Z,70.50
2022-12-08T09:44:51.336Z,70.63
2022-12-08T09:45:55.544Z,70.50
2022-12-08T09:47:00.090Z,70.53
2022-12-08T09:48:13.676Z,70.53
2022-12-08T09:49:20.538Z,70.66
2022-12-08T09:51:46.246Z,70.71
2022-12-08T09:53:07.939Z,70.57
2022-12-08T09:54:26.827Z,70.61
2022-12-08T09:55:42.465Z,70.61
2022-12-08T09:56:47.827Z,70.54
2022-12-08T09:58:00.847Z,70.54
2022-12-08T09:59:10.225Z,70.54
2022-12-08T10:00:14.646Z,70.63
2022-12-08T10:01:19.267Z,70.59
2022-12-08T10:02:25.910Z,70.59
2022-12-08T10:03:30.744Z,70.55
2022-12-08T10:04:36.999Z,70.57
2022-12-08T10:05:44.065Z,70.67
2022-12-08T10:06:54.006Z,70.55
2022-12-08T10:08:17.051Z,70.58
2022-12-08T10:09:29.655Z,70.51
2022-12-08T10:10:39.084Z,70.56
2022-12-08T10:12:14.498Z,70.56
2022-12-08T10:13:29.528Z,70.47
2022-12-08T10:14:45.491Z,70.44
2022-12-08T10:16:28.017Z,70.57
2022-12-08T10:17:29.945Z,70.47
2022-12-08T10:18:34.452Z,70.52
2022-12-08T10:19:41.186Z,70.58
2022-12-08T10:20:47.560Z,70.64
2022-12-08T10:21:51.089Z,70.64
2022-12-08T10:23:06.910Z,70.70
2022-12-08T10:24:23.015Z,70.67
2022-12-08T10:25:29.902Z,70.55
2022-12-08T10:26:33.088Z,70.68
2022-12-08T10:27:37.183Z,70.76
2022-12-08T10:28:44.793Z,70.71
2022-12-08T10:29:45.904Z,70.71
2022-12-08T10:30:49.108Z,70.67
2022-12-08T10:31:52.357Z,70.68
2022-12-08T10:32:55.711Z,70.64
2022-12-08T10:34:00.941Z,70.67
2022-12-08T10:35:11.503Z,70.63
2022-12-08T10:36:15.000Z,70.60
2022-12-08T10:37:18.106Z,70.60
2022-12-08T10:38:27.651Z,70.63
2022-12-08T10:39:34.475Z,70.73
2022-12-08T10:40:43.855Z,70.84
2022-12-08T10:41:42.980Z,70.83
2022-12-08T10:42:49.742Z,70.81
2022-12-08T10:43:59.723Z,70.81
2022-12-08T10:45:12.389Z,70.93
2022-12-08T10:46:19.125Z,70.93
2022-12-08T10:47:24.961Z,70.86
2022-12-08T10:48:32.880Z,70.83
2022-12-08T10:49:37.878Z,70.85
2022-12-08T10:50:58.198Z,70.96
2022-12-08T10:52:03.442Z,70.93
2022-12-08T10:53:18.887Z,70.88
2022-12-08T10:54:33.554Z,70.89
2022-12-08T10:55:50.755Z,70.82
2022-12-08T10:56:55.579Z,70.81
2022-12-08T10:57:58.820Z,71.02
2022-12-08T10:59:11.268Z,71.04
2022-12-08T11:01:37.716Z,70.99
2022-12-08T11:02:59.192Z,71.00
2022-12-08T11:04:06.060Z,71.09
2022-12-08T11:05:12.749Z,71.09
2022-12-08T11:06:19.390Z,71.04
2022-12-08T11:07:23.133Z,71.12
2022-12-08T11:08:28.932Z,71.19
2022-12-08T11:10:49.292Z,71.31
2022-12-08T11:11:55.879Z,71.31
2022-12-08T11:13:02.170Z,71.22
2022-12-08T11:14:07.973Z,71.20
2022-12-08T11:15:17.307Z,71.20
2022-12-08T11:16:22.480Z,71.13
2022-12-08T11:17:27.783Z,71.10
2022-12-08T11:18:34.418Z,71.23
2022-12-08T11:19:40.109Z,71.25
2022-12-08T11:20:43.304Z,71.18
2022-12-08T11:21:46.991Z,71.13
2022-12-08T11:22:55.126Z,71.20
2022-12-08T11:23:58.264Z,71.14
2022-12-08T11:26:33.765Z,71.27
2022-12-08T11:27:46.099Z,71.21
2022-12-08T11:28:49.237Z,71.28
2022-12-08T11:29:52.620Z,71.25
2022-12-08T11:30:59.496Z,71.23
2022-12-08T11:32:06.054Z,71.25
2022-12-08T11:33:27.391Z,71.24
2022-12-08T11:34:40.987Z,71.22
2022-12-08T11:35:47.177Z,71.25
2022-12-08T11:36:52.190Z,71.34
2022-12-08T11:38:13.479Z,71.44
2022-12-08T11:39:05.261Z,71.46
2022-12-08T11:40:18.538Z,71.35
2022-12-08T11:41:31.298Z,71.38
2022-12-08T11:42:37.982Z,71.46
2022-12-08T11:44:01.060Z,71.52
2022-12-08T11:45:07.982Z,71.38
2022-12-08T11:46:18.051Z,71.42
2022-12-08T11:47:27.819Z,71.46
2022-12-08T11:48:37.591Z,71.52
2022-12-08T11:49:42.412Z,71.44
2022-12-08T11:50:55.035Z,71.43
2022-12-08T11:52:05.163Z,71.40
2022-12-08T11:53:12.239Z,71.40
2022-12-08T11:54:27.983Z,71.43
2022-12-08T11:55:40.664Z,71.40
2022-12-08T11:56:59.557Z,71.46
2022-12-08T11:58:06.358Z,71.52
2022-12-08T11:59:43.441Z,71.56
2022-12-08T12:00:47.072Z,71.62
2022-12-08T12:01:50.777Z,71.64
2022-12-08T12:03:00.292Z,71.72
2022-12-08T12:07:26.366Z,71.75
2022-12-08T12:08:50.490Z,71.80
2022-12-08T12:10:17.841Z,71.89
2022-12-08T12:11:48.660Z,71.86
2022-12-08T12:13:22.707Z,71.92
2022-12-08T12:14:51.010Z,72.06
2022-12-08T12:16:18.350Z,72.14
2022-12-08T12:17:43.281Z,72.30
2022-12-08T12:19:07.597Z,72.30
2022-12-08T12:20:32.255Z,72.36
2022-12-08T12:21:41.824Z,72.45
2022-12-08T12:22:48.271Z,72.53
2022-12-08T12:23:58.073Z,72.58
2022-12-08T12:25:01.950Z,72.58
2022-12-08T12:26:08.655Z,72.71
2022-12-08T12:27:18.284Z,72.68
2022-12-08T12:28:24.799Z,72.72
2022-12-08T12:29:37.157Z,72.83
2022-12-08T12:30:56.197Z,72.79
2022-12-08T12:32:03.063Z,72.78
2022-12-08T12:33:08.077Z,72.72
2022-12-08T12:34:39.201Z,72.86
2022-12-08T12:35:43.117Z,72.77
2022-12-08T12:36:58.169Z,72.91
2022-12-08T12:38:06.774Z,72.90
2022-12-08T12:39:13.580Z,73.00
2022-12-08T12:40:23.544Z,73.11
2022-12-08T12:41:38.726Z,73.10
2022-12-08T12:42:50.986Z,73.16
2022-12-08T12:44:09.418Z,73.22
2022-12-08T12:45:16.364Z,73.29
2022-12-08T12:46:26.040Z,73.26
2022-12-08T12:47:59.393Z,73.31
2022-12-08T12:49:42.730Z,73.34
2022-12-08T12:50:48.982Z,73.50
2022-12-08T12:51:55.223Z,73.59
2022-12-08T12:53:01.044Z,73.55
2022-12-08T12:54:25.719Z,73.59
2022-12-08T12:55:47.355Z,73.70
2022-12-08T12:56:53.844Z,73.77
2022-12-08T12:57:58.415Z,73.80
2022-12-08T12:59:05.103Z,73.84
2022-12-08T13:00:12.179Z,74.01
2022-12-08T13:01:25.113Z,74.00
2022-12-08T13:02:37.611Z,73.90
2022-12-08T13:03:53.016Z,73.93
2022-12-08T13:07:42.830Z,73.98
2022-12-08T13:08:55.683Z,74.07
2022-12-08T13:10:02.662Z,74.15
2022-12-08T13:11:09.165Z,74.19
2022-12-08T13:12:15.889Z,74.23
2022-12-08T13:13:19.037Z,74.26
2022-12-08T13:15:48.219Z,74.30
2022-12-08T13:16:55.133Z,74.42
2022-12-08T13:17:58.368Z,74.42
2022-12-08T13:19:07.936Z,74.29
2022-12-08T13:21:34.899Z,74.38
2022-12-08T13:22:56.116Z,74.36
2022-12-08T13:24:19.272Z,74.55
2022-12-08T13:25:44.130Z,74.55
2022-12-08T13:26:49.861Z,74.50
2022-12-08T13:27:54.349Z,74.61
2022-12-08T13:29:03.903Z,74.71
2022-12-08T13:31:56.640Z,74.81
2022-12-08T13:33:18.383Z,74.72
2022-12-08T13:34:37.298Z,74.89
2022-12-08T13:35:43.995Z,74.92
2022-12-08T13:37:11.922Z,74.86
2022-12-08T13:38:18.850Z,74.98
2022-12-08T13:40:45.765Z,75.10
2022-12-08T13:43:18.396Z,75.00
2022-12-08T13:48:51.201Z,74.97
2022-12-08T13:51:08.169Z,75.02
2022-12-08T13:57:10.647Z,75.46
2022-12-08T13:58:01.478Z,75.39
2022-12-08T13:59:29.891Z,75.58
2022-12-08T14:00:33.155Z,75.49
2022-12-08T14:01:43.117Z,75.47
2022-12-08T14:02:49.175Z,75.53
